sensor_id;sensor_type;location;lat;lon;timestamp;P1;durP1;ratioP1;P2;durP2;ratioP2
4676;SDS011;2352;48.180;11.478;2023-10-09T00:01:37;12.70;;;7.97;;
4676;SDS011;2352;48.180;11.478;2023-10-09T00:04:40;12.57;;;8.13;;
4676;SDS011;2352;48.180;11.478;2023-10-09T00:07:46;10.18;;;8.02;;
4676;SDS011;2352;48.180;11.478;2023-10-09T00:10:50;10.02;;;7.93;;
4676;SDS011;2352;48.180;11.478;2023-10-09T00:13:55;10.33;;;7.93;;
4676;SDS011;2352;48.180;11.478;2023-10-09T00:16:59;10.27;;;8.80;;
4676;SDS011;2352;48.180;11.478;2023-10-09T00:20:22;9.07;;;7.93;;
4676;SDS011;2352;48.180;11.478;2023-10-09T00:23:39;11.95;;;8.15;;
4676;SDS011;2352;48.180;11.478;2023-10-09T00:26:44;9.48;;;8.13;;
4676;SDS011;2352;48.180;11.478;2023-10-09T00:29:48;10.15;;;7.93;;
4676;SDS011;2352;48.180;11.478;2023-10-09T00:32:51;9.02;;;8.13;;
4676;SDS011;2352;48.180;11.478;2023-10-09T00:36:02;10.93;;;9.55;;
4676;SDS011;2352;48.180;11.478;2023-10-09T00:39:11;9.50;;;8.38;;
4676;SDS011;2352;48.180;11.478;2023-10-09T00:42:22;8.95;;;7.45;;
4676;SDS011;2352;48.180;11.478;2023-10-09T00:45:30;9.80;;;6.80;;
4676;SDS011;2352;48.180;11.478;2023-10-09T00:48:34;8.68;;;7.15;;
4676;SDS011;2352;48.180;11.478;2023-10-09T00:51:43;8.43;;;7.10;;
4676;SDS011;2352;48.180;11.478;2023-10-09T00:54:58;9.35;;;7.00;;
4676;SDS011;2352;48.180;11.478;2023-10-09T00:58:07;7.72;;;6.55;;
4676;SDS011;2352;48.180;11.478;2023-10-09T01:01:13;8.57;;;6.90;;
4676;SDS011;2352;48.180;11.478;2023-10-09T01:04:17;8.38;;;6.75;;
4676;SDS011;2352;48.180;11.478;2023-10-09T01:07:22;10.50;;;5.77;;
4676;SDS011;2352;48.180;11.478;2023-10-09T01:10:27;8.35;;;6.30;;
4676;SDS011;2352;48.180;11.478;2023-10-09T01:13:38;10.20;;;6.40;;
4676;SDS011;2352;48.180;11.478;2023-10-09T01:16:54;9.60;;;6.37;;
4676;SDS011;2352;48.180;11.478;2023-10-09T01:19:58;7.45;;;6.60;;
4676;SDS011;2352;48.180;11.478;2023-10-09T01:23:06;8.07;;;6.20;;
4676;SDS011;2352;48.180;11.478;2023-10-09T01:26:10;7.70;;;5.97;;
4676;SDS011;2352;48.180;11.478;2023-10-09T01:29:14;10.97;;;6.07;;
4676;SDS011;2352;48.180;11.478;2023-10-09T01:32:19;10.40;;;6.82;;
4676;SDS011;2352;48.180;11.478;2023-10-09T01:35:22;8.10;;;6.38;;
4676;SDS011;2352;48.180;11.478;2023-10-09T01:38:28;9.32;;;6.10;;
4676;SDS011;2352;48.180;11.478;2023-10-09T01:41:41;10.38;;;6.05;;
4676;SDS011;2352;48.180;11.478;2023-10-09T01:44:48;12.40;;;6.10;;
4676;SDS011;2352;48.180;11.478;2023-10-09T01:47:51;9.48;;;6.03;;
4676;SDS011;2352;48.180;11.478;2023-10-09T01:50:55;10.90;;;6.60;;
4676;SDS011;2352;48.180;11.478;2023-10-09T01:54:01;8.33;;;6.03;;
4676;SDS011;2352;48.180;11.478;2023-10-09T01:57:04;9.93;;;5.53;;
4676;SDS011;2352;48.180;11.478;2023-10-09T02:00:13;13.05;;;6.35;;
4676;SDS011;2352;48.180;11.478;2023-10-09T02:03:24;15.02;;;6.10;;
4676;SDS011;2352;48.180;11.478;2023-10-09T02:06:28;11.27;;;6.32;;
4676;SDS011;2352;48.180;11.478;2023-10-09T02:09:35;10.57;;;5.70;;
4676;SDS011;2352;48.180;11.478;2023-10-09T02:12:45;12.00;;;5.60;;
4676;SDS011;2352;48.180;11.478;2023-10-09T02:15:48;12.15;;;6.93;;
4676;SDS011;2352;48.180;11.478;2023-10-09T02:19:00;9.88;;;6.20;;
4676;SDS011;2352;48.180;11.478;2023-10-09T02:22:09;10.73;;;6.72;;
4676;SDS011;2352;48.180;11.478;2023-10-09T02:25:15;9.80;;;5.93;;
4676;SDS011;2352;48.180;11.478;2023-10-09T02:28:22;10.18;;;5.68;;
4676;SDS011;2352;48.180;11.478;2023-10-09T02:31:25;14.18;;;6.13;;
4676;SDS011;2352;48.180;11.478;2023-10-09T02:34:37;13.73;;;6.60;;
4676;SDS011;2352;48.180;11.478;2023-10-09T02:37:40;10.68;;;5.50;;
4676;SDS011;2352;48.180;11.478;2023-10-09T02:40:44;11.25;;;6.03;;
4676;SDS011;2352;48.180;11.478;2023-10-09T02:44:01;9.00;;;5.15;;
4676;SDS011;2352;48.180;11.478;2023-10-09T02:47:13;9.73;;;6.25;;
4676;SDS011;2352;48.180;11.478;2023-10-09T02:50:21;11.15;;;5.65;;
4676;SDS011;2352;48.180;11.478;2023-10-09T02:53:27;9.57;;;5.53;;
4676;SDS011;2352;48.180;11.478;2023-10-09T02:56:37;9.55;;;5.20;;
4676;SDS011;2352;48.180;11.478;2023-10-09T02:59:44;10.68;;;6.03;;
4676;SDS011;2352;48.180;11.478;2023-10-09T03:02:47;9.98;;;5.25;;
4676;SDS011;2352;48.180;11.478;2023-10-09T03:05:52;8.30;;;5.10;;
4676;SDS011;2352;48.180;11.478;2023-10-09T03:08:56;5.65;;;4.55;;
4676;SDS011;2352;48.180;11.478;2023-10-09T03:12:01;8.98;;;5.13;;
4676;SDS011;2352;48.180;11.478;2023-10-09T03:15:06;13.30;;;5.68;;
4676;SDS011;2352;48.180;11.478;2023-10-09T03:18:10;11.65;;;5.18;;
4676;SDS011;2352;48.180;11.478;2023-10-09T03:21:15;11.98;;;5.53;;
4676;SDS011;2352;48.180;11.478;2023-10-09T03:24:18;15.20;;;6.00;;
4676;SDS011;2352;48.180;11.478;2023-10-09T03:27:25;11.40;;;6.07;;
4676;SDS011;2352;48.180;11.478;2023-10-09T03:30:28;17.27;;;6.88;;
4676;SDS011;2352;48.180;11.478;2023-10-09T03:33:34;9.77;;;4.88;;
4676;SDS011;2352;48.180;11.478;2023-10-09T03:36:37;13.77;;;5.75;;
4676;SDS011;2352;48.180;11.478;2023-10-09T03:39:40;13.38;;;6.60;;
4676;SDS011;2352;48.180;11.478;2023-10-09T03:42:45;10.15;;;5.88;;
4676;SDS011;2352;48.180;11.478;2023-10-09T03:45:48;12.73;;;5.40;;
4676;SDS011;2352;48.180;11.478;2023-10-09T03:48:54;16.60;;;6.32;;
4676;SDS011;2352;48.180;11.478;2023-10-09T03:51:58;13.65;;;4.90;;
4676;SDS011;2352;48.180;11.478;2023-10-09T03:55:03;12.68;;;6.47;;
4676;SDS011;2352;48.180;11.478;2023-10-09T03:58:11;10.93;;;5.63;;
4676;SDS011;2352;48.180;11.478;2023-10-09T04:01:16;13.13;;;6.05;;
4676;SDS011;2352;48.180;11.478;2023-10-09T04:04:24;11.77;;;5.82;;
4676;SDS011;2352;48.180;11.478;2023-10-09T04:07:30;13.83;;;6.23;;
4676;SDS011;2352;48.180;11.478;2023-10-09T04:10:34;14.23;;;6.35;;
4676;SDS011;2352;48.180;11.478;2023-10-09T04:13:57;14.50;;;5.82;;
4676;SDS011;2352;48.180;11.478;2023-10-09T04:17:02;8.38;;;4.38;;
4676;SDS011;2352;48.180;11.478;2023-10-09T04:20:25;10.37;;;5.20;;
4676;SDS011;2352;48.180;11.478;2023-10-09T04:23:46;13.05;;;6.50;;
4676;SDS011;2352;48.180;11.478;2023-10-09T04:27:21;11.23;;;5.68;;
4676;SDS011;2352;48.180;11.478;2023-10-09T04:30:35;10.52;;;5.43;;
4676;SDS011;2352;48.180;11.478;2023-10-09T04:33:42;10.25;;;5.25;;
4676;SDS011;2352;48.180;11.478;2023-10-09T04:36:55;10.25;;;4.30;;
4676;SDS011;2352;48.180;11.478;2023-10-09T04:40:02;11.30;;;6.30;;
4676;SDS011;2352;48.180;11.478;2023-10-09T04:43:14;11.88;;;5.90;;
4676;SDS011;2352;48.180;11.478;2023-10-09T04:46:24;18.42;;;5.78;;
4676;SDS011;2352;48.180;11.478;2023-10-09T04:49:28;10.53;;;5.70;;
4676;SDS011;2352;48.180;11.478;2023-10-09T04:52:31;8.88;;;5.47;;
4676;SDS011;2352;48.180;11.478;2023-10-09T04:55:47;11.87;;;5.43;;
4676;SDS011;2352;48.180;11.478;2023-10-09T04:58:56;13.50;;;6.05;;
4676;SDS011;2352;48.180;11.478;2023-10-09T05:02:06;10.77;;;5.00;;
4676;SDS011;2352;48.180;11.478;2023-10-09T05:05:20;9.98;;;5.97;;
4676;SDS011;2352;48.180;11.478;2023-10-09T05:08:37;10.75;;;5.45;;
4676;SDS011;2352;48.180;11.478;2023-10-09T05:11:47;10.93;;;5.68;;
4676;SDS011;2352;48.180;11.478;2023-10-09T05:14:56;15.05;;;7.03;;
4676;SDS011;2352;48.180;11.478;2023-10-09T05:18:12;9.68;;;5.30;;
4676;SDS011;2352;48.180;11.478;2023-10-09T05:21:17;20.08;;;6.50;;
4676;SDS011;2352;48.180;11.478;2023-10-09T05:24:38;11.95;;;7.05;;
4676;SDS011;2352;48.180;11.478;2023-10-09T05:27:55;11.60;;;6.18;;
4676;SDS011;2352;48.180;11.478;2023-10-09T05:31:17;14.60;;;6.20;;
4676;SDS011;2352;48.180;11.478;2023-10-09T05:34:35;13.23;;;5.83;;
4676;SDS011;2352;48.180;11.478;2023-10-09T05:37:58;13.32;;;6.35;;
4676;SDS011;2352;48.180;11.478;2023-10-09T05:41:16;13.65;;;5.75;;
4676;SDS011;2352;48.180;11.478;2023-10-09T05:44:49;11.90;;;6.63;;
4676;SDS011;2352;48.180;11.478;2023-10-09T05:47:57;12.85;;;6.45;;
4676;SDS011;2352;48.180;11.478;2023-10-09T05:51:09;14.27;;;7.05;;
4676;SDS011;2352;48.180;11.478;2023-10-09T05:54:14;13.55;;;6.72;;
4676;SDS011;2352;48.180;11.478;2023-10-09T05:57:52;14.85;;;6.18;;
4676;SDS011;2352;48.180;11.478;2023-10-09T06:01:24;16.42;;;7.50;;
4676;SDS011;2352;48.180;11.478;2023-10-09T06:04:47;14.73;;;7.88;;
4676;SDS011;2352;48.180;11.478;2023-10-09T06:07:57;11.55;;;6.40;;
4676;SDS011;2352;48.180;11.478;2023-10-09T06:11:09;10.40;;;6.17;;
4676;SDS011;2352;48.180;11.478;2023-10-09T06:14:27;13.48;;;6.13;;
4676;SDS011;2352;48.180;11.478;2023-10-09T06:17:44;19.40;;;6.25;;
4676;SDS011;2352;48.180;11.478;2023-10-09T06:20:52;17.15;;;6.90;;
4676;SDS011;2352;48.180;11.478;2023-10-09T06:24:29;13.20;;;5.25;;
4676;SDS011;2352;48.180;11.478;2023-10-09T06:27:43;21.08;;;6.53;;
4676;SDS011;2352;48.180;11.478;2023-10-09T06:31:02;10.63;;;4.82;;
4676;SDS011;2352;48.180;11.478;2023-10-09T06:34:29;18.33;;;6.00;;
4676;SDS011;2352;48.180;11.478;2023-10-09T06:37:33;10.13;;;5.63;;
4676;SDS011;2352;48.180;11.478;2023-10-09T06:40:41;14.00;;;6.53;;
4676;SDS011;2352;48.180;11.478;2023-10-09T06:44:07;10.73;;;6.35;;
4676;SDS011;2352;48.180;11.478;2023-10-09T06:47:30;12.13;;;6.05;;
4676;SDS011;2352;48.180;11.478;2023-10-09T06:50:42;16.05;;;5.78;;
4676;SDS011;2352;48.180;11.478;2023-10-09T06:53:57;14.60;;;6.38;;
4676;SDS011;2352;48.180;11.478;2023-10-09T06:57:07;18.53;;;5.73;;
4676;SDS011;2352;48.180;11.478;2023-10-09T07:00:15;14.00;;;6.55;;
4676;SDS011;2352;48.180;11.478;2023-10-09T07:03:35;12.05;;;6.50;;
4676;SDS011;2352;48.180;11.478;2023-10-09T07:06:53;16.60;;;5.85;;
4676;SDS011;2352;48.180;11.478;2023-10-09T07:09:58;13.43;;;6.68;;
4676;SDS011;2352;48.180;11.478;2023-10-09T07:13:19;17.80;;;6.28;;
4676;SDS011;2352;48.180;11.478;2023-10-09T07:16:25;12.35;;;6.72;;
4676;SDS011;2352;48.180;11.478;2023-10-09T07:19:30;14.73;;;6.47;;
4676;SDS011;2352;48.180;11.478;2023-10-09T07:22:44;17.75;;;6.93;;
4676;SDS011;2352;48.180;11.478;2023-10-09T07:26:01;13.57;;;6.45;;
4676;SDS011;2352;48.180;11.478;2023-10-09T07:29:20;12.77;;;6.13;;
4676;SDS011;2352;48.180;11.478;2023-10-09T07:32:29;12.57;;;5.10;;
4676;SDS011;2352;48.180;11.478;2023-10-09T07:35:33;11.73;;;5.45;;
4676;SDS011;2352;48.180;11.478;2023-10-09T07:38:48;16.13;;;5.72;;
4676;SDS011;2352;48.180;11.478;2023-10-09T07:41:56;12.63;;;5.75;;
4676;SDS011;2352;48.180;11.478;2023-10-09T07:45:05;15.30;;;4.87;;
4676;SDS011;2352;48.180;11.478;2023-10-09T07:48:34;15.40;;;5.72;;
4676;SDS011;2352;48.180;11.478;2023-10-09T07:51:50;12.85;;;5.22;;
4676;SDS011;2352;48.180;11.478;2023-10-09T07:54:53;11.40;;;5.25;;
4676;SDS011;2352;48.180;11.478;2023-10-09T07:58:03;13.95;;;5.47;;
4676;SDS011;2352;48.180;11.478;2023-10-09T08:01:13;12.82;;;5.28;;
4676;SDS011;2352;48.180;11.478;2023-10-09T08:04:24;13.17;;;4.97;;
4676;SDS011;2352;48.180;11.478;2023-10-09T08:07:41;17.10;;;5.45;;
4676;SDS011;2352;48.180;11.478;2023-10-09T08:11:14;16.90;;;6.05;;
4676;SDS011;2352;48.180;11.478;2023-10-09T08:14:34;21.52;;;5.63;;
4676;SDS011;2352;48.180;11.478;2023-10-09T08:17:52;18.45;;;5.82;;
4676;SDS011;2352;48.180;11.478;2023-10-09T08:20:56;13.93;;;5.07;;
4676;SDS011;2352;48.180;11.478;2023-10-09T08:24:25;15.52;;;5.32;;
4676;SDS011;2352;48.180;11.478;2023-10-09T08:27:43;16.20;;;5.32;;
4676;SDS011;2352;48.180;11.478;2023-10-09T08:30:56;9.80;;;4.23;;
4676;SDS011;2352;48.180;11.478;2023-10-09T08:34:07;12.82;;;5.00;;
4676;SDS011;2352;48.180;11.478;2023-10-09T08:37:13;19.43;;;5.40;;
4676;SDS011;2352;48.180;11.478;2023-10-09T08:40:17;16.83;;;5.87;;
4676;SDS011;2352;48.180;11.478;2023-10-09T08:43:22;15.57;;;5.25;;
4676;SDS011;2352;48.180;11.478;2023-10-09T08:46:25;12.80;;;4.85;;
4676;SDS011;2352;48.180;11.478;2023-10-09T08:49:31;11.43;;;5.40;;
4676;SDS011;2352;48.180;11.478;2023-10-09T08:52:35;14.30;;;5.53;;
4676;SDS011;2352;48.180;11.478;2023-10-09T08:55:39;13.10;;;5.47;;
4676;SDS011;2352;48.180;11.478;2023-10-09T08:58:43;8.88;;;4.68;;
4676;SDS011;2352;48.180;11.478;2023-10-09T09:01:46;14.48;;;5.55;;
4676;SDS011;2352;48.180;11.478;2023-10-09T09:04:54;10.10;;;4.70;;
4676;SDS011;2352;48.180;11.478;2023-10-09T09:07:57;13.85;;;5.53;;
4676;SDS011;2352;48.180;11.478;2023-10-09T09:11:01;15.03;;;5.37;;
4676;SDS011;2352;48.180;11.478;2023-10-09T09:14:13;11.30;;;5.00;;
4676;SDS011;2352;48.180;11.478;2023-10-09T09:17:22;8.93;;;3.97;;
4676;SDS011;2352;48.180;11.478;2023-10-09T09:20:34;13.90;;;5.22;;
4676;SDS011;2352;48.180;11.478;2023-10-09T09:23:42;16.07;;;5.10;;
4676;SDS011;2352;48.180;11.478;2023-10-09T09:27:00;10.55;;;4.05;;
4676;SDS011;2352;48.180;11.478;2023-10-09T09:30:21;21.77;;;5.05;;
4676;SDS011;2352;48.180;11.478;2023-10-09T09:33:27;13.88;;;4.50;;
4676;SDS011;2352;48.180;11.478;2023-10-09T09:36:50;15.75;;;5.43;;
4676;SDS011;2352;48.180;11.478;2023-10-09T09:39:55;15.80;;;5.75;;
4676;SDS011;2352;48.180;11.478;2023-10-09T09:43:02;15.32;;;4.63;;
4676;SDS011;2352;48.180;11.478;2023-10-09T09:46:08;11.15;;;4.60;;
4676;SDS011;2352;48.180;11.478;2023-10-09T09:49:14;10.80;;;4.30;;
4676;SDS011;2352;48.180;11.478;2023-10-09T09:52:24;13.68;;;5.03;;
4676;SDS011;2352;48.180;11.478;2023-10-09T09:55:29;13.68;;;4.75;;
4676;SDS011;2352;48.180;11.478;2023-10-09T09:58:37;12.73;;;4.82;;
4676;SDS011;2352;48.180;11.478;2023-10-09T10:01:46;12.25;;;5.10;;
4676;SDS011;2352;48.180;11.478;2023-10-09T10:04:59;10.93;;;4.60;;
4676;SDS011;2352;48.180;11.478;2023-10-09T10:08:08;13.23;;;5.32;;
4676;SDS011;2352;48.180;11.478;2023-10-09T10:14:52;11.35;;;4.30;;
4676;SDS011;2352;48.180;11.478;2023-10-09T10:18:07;13.57;;;5.23;;
4676;SDS011;2352;48.180;11.478;2023-10-09T10:21:12;15.90;;;4.95;;
4676;SDS011;2352;48.180;11.478;2023-10-09T10:31:52;12.20;;;4.75;;
4676;SDS011;2352;48.180;11.478;2023-10-09T10:34:59;12.13;;;4.70;;
4676;SDS011;2352;48.180;11.478;2023-10-09T10:38:21;11.07;;;4.30;;
4676;SDS011;2352;48.180;11.478;2023-10-09T10:41:27;15.68;;;5.05;;
4676;SDS011;2352;48.180;11.478;2023-10-09T10:44:33;14.27;;;5.03;;
4676;SDS011;2352;48.180;11.478;2023-10-09T10:47:38;14.77;;;5.55;;
4676;SDS011;2352;48.180;11.478;2023-10-09T10:50:42;18.55;;;5.68;;
4676;SDS011;2352;48.180;11.478;2023-10-09T10:53:50;15.13;;;5.43;;
4676;SDS011;2352;48.180;11.478;2023-10-09T10:56:59;12.85;;;4.68;;
4676;SDS011;2352;48.180;11.478;2023-10-09T11:00:09;12.13;;;4.90;;
4676;SDS011;2352;48.180;11.478;2023-10-09T11:03:35;14.85;;;5.38;;
4676;SDS011;2352;48.180;11.478;2023-10-09T11:06:56;14.38;;;5.32;;
4676;SDS011;2352;48.180;11.478;2023-10-09T11:10:08;11.23;;;5.07;;
4676;SDS011;2352;48.180;11.478;2023-10-09T11:13:21;13.15;;;5.65;;
4676;SDS011;2352;48.180;11.478;2023-10-09T11:16:36;17.40;;;5.15;;
4676;SDS011;2352;48.180;11.478;2023-10-09T11:19:48;14.50;;;5.40;;
4676;SDS011;2352;48.180;11.478;2023-10-09T11:22:54;20.70;;;6.18;;
4676;SDS011;2352;48.180;11.478;2023-10-09T11:26:17;8.43;;;4.68;;
4676;SDS011;2352;48.180;11.478;2023-10-09T11:29:31;20.33;;;5.83;;
4676;SDS011;2352;48.180;11.478;2023-10-09T11:32:48;14.57;;;5.65;;
4676;SDS011;2352;48.180;11.478;2023-10-09T11:35:54;17.58;;;6.00;;
4676;SDS011;2352;48.180;11.478;2023-10-09T11:38:58;14.65;;;5.68;;
4676;SDS011;2352;48.180;11.478;2023-10-09T11:42:15;15.63;;;6.18;;
4676;SDS011;2352;48.180;11.478;2023-10-09T11:45:32;16.77;;;5.90;;
4676;SDS011;2352;48.180;11.478;2023-10-09T11:48:39;21.05;;;6.03;;
4676;SDS011;2352;48.180;11.478;2023-10-09T11:51:48;13.10;;;5.50;;
4676;SDS011;2352;48.180;11.478;2023-10-09T11:55:11;19.00;;;6.45;;
4676;SDS011;2352;48.180;11.478;2023-10-09T11:58:16;13.75;;;5.95;;
4676;SDS011;2352;48.180;11.478;2023-10-09T12:01:25;21.27;;;7.03;;
4676;SDS011;2352;48.180;11.478;2023-10-09T12:04:36;20.42;;;6.30;;
4676;SDS011;2352;48.180;11.478;2023-10-09T12:07:46;16.92;;;5.80;;
4676;SDS011;2352;48.180;11.478;2023-10-09T12:10:55;17.23;;;6.70;;
4676;SDS011;2352;48.180;11.478;2023-10-09T12:13:58;18.33;;;6.80;;
4676;SDS011;2352;48.180;11.478;2023-10-09T12:17:03;19.58;;;6.80;;
4676;SDS011;2352;48.180;11.478;2023-10-09T12:20:08;11.85;;;6.07;;
4676;SDS011;2352;48.180;11.478;2023-10-09T12:23:16;24.48;;;6.75;;
4676;SDS011;2352;48.180;11.478;2023-10-09T12:26:19;19.60;;;6.50;;
4676;SDS011;2352;48.180;11.478;2023-10-09T12:29:22;17.42;;;6.35;;
4676;SDS011;2352;48.180;11.478;2023-10-09T12:32:32;15.38;;;5.93;;
4676;SDS011;2352;48.180;11.478;2023-10-09T12:35:37;18.52;;;6.93;;
4676;SDS011;2352;48.180;11.478;2023-10-09T12:38:41;23.15;;;12.23;;
4676;SDS011;2352;48.180;11.478;2023-10-09T12:41:47;21.08;;;10.27;;
4676;SDS011;2352;48.180;11.478;2023-10-09T12:44:54;14.23;;;6.57;;
4676;SDS011;2352;48.180;11.478;2023-10-09T12:48:00;16.58;;;5.88;;
4676;SDS011;2352;48.180;11.478;2023-10-09T12:51:05;16.65;;;5.93;;
4676;SDS011;2352;48.180;11.478;2023-10-09T12:54:08;17.05;;;6.72;;
4676;SDS011;2352;48.180;11.478;2023-10-09T12:57:12;19.48;;;7.50;;
4676;SDS011;2352;48.180;11.478;2023-10-09T13:00:16;16.83;;;7.90;;
4676;SDS011;2352;48.180;11.478;2023-10-09T13:03:28;12.38;;;7.80;;
4676;SDS011;2352;48.180;11.478;2023-10-09T13:06:34;18.73;;;6.65;;
4676;SDS011;2352;48.180;11.478;2023-10-09T13:09:44;15.82;;;5.72;;
4676;SDS011;2352;48.180;11.478;2023-10-09T13:13:07;14.73;;;5.57;;
4676;SDS011;2352;48.180;11.478;2023-10-09T13:16:13;14.73;;;5.90;;
4676;SDS011;2352;48.180;11.478;2023-10-09T13:19:26;8.60;;;5.30;;
4676;SDS011;2352;48.180;11.478;2023-10-09T13:22:28;11.27;;;5.97;;
4676;SDS011;2352;48.180;11.478;2023-10-09T13:25:31;12.45;;;5.97;;
4676;SDS011;2352;48.180;11.478;2023-10-09T13:28:41;14.35;;;6.20;;
4676;SDS011;2352;48.180;11.478;2023-10-09T13:31:46;14.10;;;5.65;;
4676;SDS011;2352;48.180;11.478;2023-10-09T13:34:51;13.23;;;5.10;;
4676;SDS011;2352;48.180;11.478;2023-10-09T13:37:56;14.68;;;4.72;;
4676;SDS011;2352;48.180;11.478;2023-10-09T13:41:00;11.68;;;5.43;;
4676;SDS011;2352;48.180;11.478;2023-10-09T13:44:05;11.68;;;5.40;;
4676;SDS011;2352;48.180;11.478;2023-10-09T13:47:08;14.75;;;5.60;;
4676;SDS011;2352;48.180;11.478;2023-10-09T13:50:22;13.02;;;5.50;;
4676;SDS011;2352;48.180;11.478;2023-10-09T13:53:32;12.10;;;5.70;;
4676;SDS011;2352;48.180;11.478;2023-10-09T13:56:36;22.08;;;6.38;;
4676;SDS011;2352;48.180;11.478;2023-10-09T13:59:41;18.10;;;5.88;;
4676;SDS011;2352;48.180;11.478;2023-10-09T14:02:50;15.57;;;6.25;;
4676;SDS011;2352;48.180;11.478;2023-10-09T14:05:54;13.23;;;5.82;;
4676;SDS011;2352;48.180;11.478;2023-10-09T14:09:00;13.93;;;5.53;;
4676;SDS011;2352;48.180;11.478;2023-10-09T14:12:06;13.25;;;5.47;;
4676;SDS011;2352;48.180;11.478;2023-10-09T14:15:10;12.85;;;4.93;;
4676;SDS011;2352;48.180;11.478;2023-10-09T14:18:18;16.52;;;5.55;;
4676;SDS011;2352;48.180;11.478;2023-10-09T14:21:23;14.25;;;6.32;;
4676;SDS011;2352;48.180;11.478;2023-10-09T14:24:27;11.98;;;6.07;;
4676;SDS011;2352;48.180;11.478;2023-10-09T14:27:34;12.43;;;6.00;;
4676;SDS011;2352;48.180;11.478;2023-10-09T14:30:37;11.27;;;5.20;;
4676;SDS011;2352;48.180;11.478;2023-10-09T14:33:44;13.38;;;5.82;;
4676;SDS011;2352;48.180;11.478;2023-10-09T14:36:54;10.43;;;5.43;;
4676;SDS011;2352;48.180;11.478;2023-10-09T14:39:57;13.27;;;5.83;;
4676;SDS011;2352;48.180;11.478;2023-10-09T14:43:00;14.00;;;6.80;;
4676;SDS011;2352;48.180;11.478;2023-10-09T14:46:04;10.63;;;5.70;;
4676;SDS011;2352;48.180;11.478;2023-10-09T14:49:12;14.88;;;5.85;;
4676;SDS011;2352;48.180;11.478;2023-10-09T14:52:16;14.97;;;6.30;;
4676;SDS011;2352;48.180;11.478;2023-10-09T14:55:21;12.38;;;5.93;;
4676;SDS011;2352;48.180;11.478;2023-10-09T14:58:30;12.75;;;6.35;;
4676;SDS011;2352;48.180;11.478;2023-10-09T15:01:36;17.33;;;6.45;;
4676;SDS011;2352;48.180;11.478;2023-10-09T15:04:39;16.08;;;7.07;;
4676;SDS011;2352;48.180;11.478;2023-10-09T15:07:44;16.15;;;7.05;;
4676;SDS011;2352;48.180;11.478;2023-10-09T15:10:48;13.60;;;6.13;;
4676;SDS011;2352;48.180;11.478;2023-10-09T15:13:53;14.85;;;7.30;;
4676;SDS011;2352;48.180;11.478;2023-10-09T15:16:56;18.60;;;8.07;;
4676;SDS011;2352;48.180;11.478;2023-10-09T15:19:59;19.75;;;7.35;;
4676;SDS011;2352;48.180;11.478;2023-10-09T15:23:04;12.88;;;6.57;;
4676;SDS011;2352;48.180;11.478;2023-10-09T15:26:07;13.30;;;6.13;;
4676;SDS011;2352;48.180;11.478;2023-10-09T15:29:10;15.07;;;6.18;;
4676;SDS011;2352;48.180;11.478;2023-10-09T15:32:14;13.43;;;6.70;;
4676;SDS011;2352;48.180;11.478;2023-10-09T15:35:23;15.48;;;6.93;;
4676;SDS011;2352;48.180;11.478;2023-10-09T15:38:28;14.85;;;6.40;;
4676;SDS011;2352;48.180;11.478;2023-10-09T15:41:31;12.88;;;6.70;;
4676;SDS011;2352;48.180;11.478;2023-10-09T15:44:35;14.30;;;6.63;;
4676;SDS011;2352;48.180;11.478;2023-10-09T15:47:39;15.25;;;6.30;;
4676;SDS011;2352;48.180;11.478;2023-10-09T15:50:44;15.57;;;6.43;;
4676;SDS011;2352;48.180;11.478;2023-10-09T15:53:50;19.65;;;6.38;;
4676;SDS011;2352;48.180;11.478;2023-10-09T15:56:54;11.45;;;6.57;;
4676;SDS011;2352;48.180;11.478;2023-10-09T16:00:13;18.85;;;6.50;;
4676;SDS011;2352;48.180;11.478;2023-10-09T16:03:19;14.80;;;6.05;;
4676;SDS011;2352;48.180;11.478;2023-10-09T16:06:25;11.82;;;6.63;;
4676;SDS011;2352;48.180;11.478;2023-10-09T16:09:33;16.35;;;6.45;;
4676;SDS011;2352;48.180;11.478;2023-10-09T16:12:39;15.15;;;6.75;;
4676;SDS011;2352;48.180;11.478;2023-10-09T16:15:43;13.70;;;6.00;;
4676;SDS011;2352;48.180;11.478;2023-10-09T16:18:46;17.45;;;6.65;;
4676;SDS011;2352;48.180;11.478;2023-10-09T16:21:49;12.03;;;6.07;;
4676;SDS011;2352;48.180;11.478;2023-10-09T16:24:54;16.83;;;6.63;;
4676;SDS011;2352;48.180;11.478;2023-10-09T16:28:01;13.43;;;5.68;;
4676;SDS011;2352;48.180;11.478;2023-10-09T16:31:04;14.53;;;6.33;;
4676;SDS011;2352;48.180;11.478;2023-10-09T16:34:13;11.52;;;5.80;;
4676;SDS011;2352;48.180;11.478;2023-10-09T16:37:17;13.32;;;6.50;;
4676;SDS011;2352;48.180;11.478;2023-10-09T16:40:25;12.27;;;5.90;;
4676;SDS011;2352;48.180;11.478;2023-10-09T16:43:28;13.82;;;6.40;;
4676;SDS011;2352;48.180;11.478;2023-10-09T16:46:31;11.63;;;5.68;;
4676;SDS011;2352;48.180;11.478;2023-10-09T16:49:34;15.25;;;6.57;;
4676;SDS011;2352;48.180;11.478;2023-10-09T16:52:40;12.27;;;6.68;;
4676;SDS011;2352;48.180;11.478;2023-10-09T16:55:45;13.60;;;6.65;;
4676;SDS011;2352;48.180;11.478;2023-10-09T16:58:50;13.23;;;6.07;;
4676;SDS011;2352;48.180;11.478;2023-10-09T17:01:54;11.02;;;6.35;;
4676;SDS011;2352;48.180;11.478;2023-10-09T17:04:57;17.17;;;7.25;;
4676;SDS011;2352;48.180;11.478;2023-10-09T17:08:00;16.67;;;6.47;;
4676;SDS011;2352;48.180;11.478;2023-10-09T17:11:06;9.77;;;6.00;;
4676;SDS011;2352;48.180;11.478;2023-10-09T17:14:13;11.80;;;6.88;;
4676;SDS011;2352;48.180;11.478;2023-10-09T17:17:18;16.73;;;7.85;;
4676;SDS011;2352;48.180;11.478;2023-10-09T17:20:22;14.57;;;7.05;;
4676;SDS011;2352;48.180;11.478;2023-10-09T17:23:28;12.85;;;7.10;;
4676;SDS011;2352;48.180;11.478;2023-10-09T17:26:35;12.13;;;6.05;;
4676;SDS011;2352;48.180;11.478;2023-10-09T17:29:39;12.07;;;6.68;;
4676;SDS011;2352;48.180;11.478;2023-10-09T17:32:43;12.57;;;7.10;;
4676;SDS011;2352;48.180;11.478;2023-10-09T17:35:46;11.65;;;6.18;;
4676;SDS011;2352;48.180;11.478;2023-10-09T17:38:50;12.90;;;5.40;;
4676;SDS011;2352;48.180;11.478;2023-10-09T17:41:55;16.70;;;6.35;;
4676;SDS011;2352;48.180;11.478;2023-10-09T17:44:58;13.52;;;6.05;;
4676;SDS011;2352;48.180;11.478;2023-10-09T17:48:01;10.15;;;5.55;;
4676;SDS011;2352;48.180;11.478;2023-10-09T17:51:09;14.50;;;6.13;;
4676;SDS011;2352;48.180;11.478;2023-10-09T17:54:12;12.77;;;5.93;;
4676;SDS011;2352;48.180;11.478;2023-10-09T17:57:17;14.20;;;5.97;;
4676;SDS011;2352;48.180;11.478;2023-10-09T18:00:20;12.07;;;6.72;;
4676;SDS011;2352;48.180;11.478;2023-10-09T18:03:24;13.45;;;6.18;;
4676;SDS011;2352;48.180;11.478;2023-10-09T18:06:29;16.10;;;6.67;;
4676;SDS011;2352;48.180;11.478;2023-10-09T18:09:36;11.20;;;6.15;;
4676;SDS011;2352;48.180;11.478;2023-10-09T18:12:42;15.57;;;7.25;;
4676;SDS011;2352;48.180;11.478;2023-10-09T18:15:45;14.30;;;6.53;;
4676;SDS011;2352;48.180;11.478;2023-10-09T18:18:49;14.82;;;6.60;;
4676;SDS011;2352;48.180;11.478;2023-10-09T18:21:54;10.07;;;5.85;;
4676;SDS011;2352;48.180;11.478;2023-10-09T18:24:57;15.03;;;6.40;;
4676;SDS011;2352;48.180;11.478;2023-10-09T18:28:01;11.57;;;6.50;;
4676;SDS011;2352;48.180;11.478;2023-10-09T18:31:09;13.33;;;6.17;;
4676;SDS011;2352;48.180;11.478;2023-10-09T18:34:14;11.07;;;5.73;;
4676;SDS011;2352;48.180;11.478;2023-10-09T18:37:17;14.30;;;6.53;;
4676;SDS011;2352;48.180;11.478;2023-10-09T18:40:20;12.95;;;6.15;;
4676;SDS011;2352;48.180;11.478;2023-10-09T18:43:28;14.13;;;5.88;;
4676;SDS011;2352;48.180;11.478;2023-10-09T18:46:31;10.15;;;5.78;;
4676;SDS011;2352;48.180;11.478;2023-10-09T18:49:34;16.23;;;5.95;;
4676;SDS011;2352;48.180;11.478;2023-10-09T18:52:38;12.95;;;6.40;;
4676;SDS011;2352;48.180;11.478;2023-10-09T18:55:44;12.05;;;6.63;;
4676;SDS011;2352;48.180;11.478;2023-10-09T18:58:51;13.63;;;6.65;;
4676;SDS011;2352;48.180;11.478;2023-10-09T19:01:54;13.65;;;5.72;;
4676;SDS011;2352;48.180;11.478;2023-10-09T19:04:57;12.63;;;6.68;;
4676;SDS011;2352;48.180;11.478;2023-10-09T19:08:00;18.95;;;7.47;;
4676;SDS011;2352;48.180;11.478;2023-10-09T19:11:04;10.97;;;5.50;;